Time;durP1;ratioP1;P1;durP2;ratioP2;P2;SDS_P1;SDS_P2;PMS_P1;PMS_P2;Temp;Humidity;BMP_temperature;BMP_pressure;BME280_temperature;BME280_humidity;BME280_pressure;Samples;Min_cycle;Max_cycle;Signal;HPM_P1;HPM_P2
2024/02/20 00:02:18;;;;;;;8.23;6.00;;;;;;;;;;5022394;28;20072;-63
2024/02/20 00:04:43;;;;;;;8.43;6.05;;;;;;;;;;5022096;28;20080;-63
2024/02/20 00:07:09;;;;;;;8.57;5.97;;;;;;;;;;5023339;28;20036;-65
2024/02/20 00:09:34;;;;;;;8.35;6.15;;;;;;;;;;5004555;28;20042;-63
2024/02/20 00:12:02;;;;;;;7.70;5.85;;;;;;;;;;5023202;28;20564;-63
2024/02/20 00:14:27;;;;;;;7.88;5.88;;;;;;;;;;5022791;28;20054;-63
2024/02/20 00:16:53;;;;;;;8.30;6.07;;;;;;;;;;5022534;28;20060;-64
2024/02/20 00:19:20;;;;;;;7.85;5.88;;;;;;;;;;5023586;28;20033;-65
2024/02/20 00:21:45;;;;;;;8.50;6.15;;;;;;;;;;5023002;28;20094;-63
2024/02/20 00:24:11;;;;;;;7.78;6.10;;;;;;;;;;5024860;28;20037;-63
2024/02/20 00:26:36;;;;;;;8.93;6.45;;;;;;;;;;5005908;28;20050;-63
2024/02/20 00:29:01;;;;;;;9.13;5.93;;;;;;;;;;5025182;28;20033;-64
2024/02/20 00:31:28;;;;;;;7.70;5.50;;;;;;;;;;5026291;28;20030;-63
2024/02/20 00:33:54;;;;;;;9.23;6.32;;;;;;;;;;5024745;28;20053;-63
2024/02/20 00:36:19;;;;;;;8.85;6.30;;;;;;;;;;5023662;28;20038;-63
2024/02/20 00:38:44;;;;;;;8.35;6.05;;;;;;;;;;5022526;28;20502;-63
2024/02/20 00:41:09;;;;;;;8.07;6.13;;;;;;;;;;5022932;28;20582;-63
2024/02/20 00:43:35;;;;;;;8.07;6.05;;;;;;;;;;5021329;28;20033;-64
2024/02/20 00:46:01;;;;;;;9.50;6.55;;;;;;;;;;5022017;28;20057;-63
2024/02/20 00:48:26;;;;;;;8.27;6.13;;;;;;;;;;5022817;28;20050;-63
2024/02/20 00:50:52;;;;;;;8.88;6.30;;;;;;;;;;5021935;28;20065;-62
2024/02/20 00:53:17;;;;;;;8.75;6.57;;;;;;;;;;5022029;28;20034;-64
2024/02/20 00:55:42;;;;;;;8.32;6.22;;;;;;;;;;5021932;28;20072;-62
2024/02/20 00:58:08;;;;;;;8.38;5.93;;;;;;;;;;5022303;28;20061;-63
2024/02/20 01:00:33;;;;;;;8.85;6.15;;;;;;;;;;5021121;28;20403;-63
2024/02/20 01:02:59;;;;;;;8.23;6.00;;;;;;;;;;5014769;28;20101;-63
2024/02/20 01:05:24;;;;;;;8.40;6.20;;;;;;;;;;5022510;28;20131;-63
2024/02/20 01:07:49;;;;;;;8.32;5.97;;;;;;;;;;5020574;28;20030;-63
2024/02/20 01:10:16;;;;;;;8.88;6.43;;;;;;;;;;5022331;28;20124;-62
2024/02/20 01:12:42;;;;;;;8.30;6.10;;;;;;;;;;5020878;28;20668;-63
2024/02/20 01:15:07;;;;;;;8.20;6.20;;;;;;;;;;5003614;28;20037;-64
2024/02/20 01:17:33;;;;;;;8.32;6.03;;;;;;;;;;5021159;28;20029;-63
2024/02/20 01:20:01;;;;;;;8.95;6.60;;;;;;;;;;5021987;28;20041;-63
2024/02/20 01:22:26;;;;;;;7.60;5.80;;;;;;;;;;5015939;28;20034;-63
2024/02/20 01:24:52;;;;;;;8.90;6.30;;;;;;;;;;5022462;28;20052;-63
2024/02/20 01:27:17;;;;;;;7.80;5.75;;;;;;;;;;5022564;28;20057;-64
2024/02/20 01:29:45;;;;;;;7.50;5.95;;;;;;;;;;5021673;28;20037;-62
2024/02/20 01:32:11;;;;;;;8.32;6.10;;;;;;;;;;5021081;28;20038;-63
2024/02/20 01:34:36;;;;;;;9.80;6.93;;;;;;;;;;5012245;28;20034;-64
2024/02/20 01:37:01;;;;;;;8.43;6.43;;;;;;;;;;5023422;28;20033;-63
2024/02/20 01:39:27;;;;;;;7.70;6.22;;;;;;;;;;5021468;28;20034;-64
2024/02/20 01:41:52;;;;;;;8.07;6.13;;;;;;;;;;5020558;28;20072;-63
2024/02/20 01:44:18;;;;;;;8.35;6.00;;;;;;;;;;5021222;28;20060;-63
2024/02/20 01:46:43;;;;;;;9.07;6.45;;;;;;;;;;5023589;28;20041;-63
2024/02/20 01:49:09;;;;;;;8.95;6.40;;;;;;;;;;5024866;28;20044;-65
2024/02/20 01:51:35;;;;;;;8.85;5.95;;;;;;;;;;5007339;28;20053;-63
2024/02/20 01:54:00;;;;;;;8.27;6.22;;;;;;;;;;4997998;28;20468;-63
2024/02/20 01:56:26;;;;;;;8.63;6.60;;;;;;;;;;5019209;28;20061;-64
2024/02/20 01:58:51;;;;;;;9.70;6.80;;;;;;;;;;5002584;28;20158;-65
2024/02/20 02:01:18;;;;;;;8.75;6.65;;;;;;;;;;5002896;28;20034;-65
2024/02/20 02:03:43;;;;;;;9.15;6.78;;;;;;;;;;5020795;28;20041;-67
2024/02/20 02:06:09;;;;;;;10.13;6.78;;;;;;;;;;5021887;28;20041;-63
2024/02/20 02:08:35;;;;;;;9.23;6.75;;;;;;;;;;5023788;28;20032;-63
2024/02/20 02:11:00;;;;;;;8.98;6.28;;;;;;;;;;5021707;28;20041;-62
2024/02/20 02:13:25;;;;;;;8.48;6.43;;;;;;;;;;5025174;28;20083;-63
2024/02/20 02:15:51;;;;;;;8.75;6.95;;;;;;;;;;5024970;28;20495;-63
2024/02/20 02:18:16;;;;;;;8.95;6.90;;;;;;;;;;5025057;28;20475;-64
2024/02/20 02:20:41;;;;;;;7.57;5.82;;;;;;;;;;5024267;28;20025;-63
2024/02/20 02:23:07;;;;;;;8.50;6.28;;;;;;;;;;5024931;28;20128;-64
2024/02/20 02:25:32;;;;;;;8.43;6.68;;;;;;;;;;5023470;28;20107;-66
2024/02/20 02:27:57;;;;;;;8.43;6.38;;;;;;;;;;5030864;28;20087;-64
2024/02/20 02:30:23;;;;;;;8.13;6.10;;;;;;;;;;5024756;28;20502;-64
2024/02/20 02:32:48;;;;;;;9.45;6.72;;;;;;;;;;5024907;28;20474;-63
2024/02/20 02:35:13;;;;;;;9.35;6.88;;;;;;;;;;5026721;28;20118;-63
2024/02/20 02:37:39;;;;;;;8.98;6.75;;;;;;;;;;5025182;28;20862;-67
2024/02/20 02:40:04;;;;;;;10.35;6.55;;;;;;;;;;5024667;28;20180;-63
2024/02/20 02:42:30;;;;;;;9.02;6.82;;;;;;;;;;5023155;28;20061;-62
2024/02/20 02:44:55;;;;;;;9.18;6.63;;;;;;;;;;5025498;28;20033;-63
2024/02/20 02:47:21;;;;;;;9.07;6.57;;;;;;;;;;5031855;28;20055;-64
2024/02/20 02:49:46;;;;;;;9.40;7.28;;;;;;;;;;5026926;28;20122;-62
2024/02/20 02:52:11;;;;;;;8.45;6.05;;;;;;;;;;5025005;28;20021;-64
2024/02/20 02:54:37;;;;;;;8.52;6.60;;;;;;;;;;5024138;28;20029;-63
2024/02/20 02:57:02;;;;;;;7.65;6.00;;;;;;;;;;5024570;28;20025;-64
2024/02/20 02:59:28;;;;;;;9.55;7.03;;;;;;;;;;5024192;28;20057;-64
2024/02/20 03:01:53;;;;;;;9.00;6.28;;;;;;;;;;5024666;28;20029;-64
2024/02/20 03:04:19;;;;;;;8.57;6.47;;;;;;;;;;5023895;28;20076;-64
2024/02/20 03:06:45;;;;;;;8.35;6.32;;;;;;;;;;5025195;28;20033;-65
2024/02/20 03:09:12;;;;;;;9.73;7.05;;;;;;;;;;5025428;28;20459;-63
2024/02/20 03:11:41;;;;;;;8.10;5.80;;;;;;;;;;5023899;28;20037;-62
2024/02/20 03:14:10;;;;;;;8.80;6.63;;;;;;;;;;5024609;28;20518;-66
2024/02/20 03:16:35;;;;;;;8.63;6.47;;;;;;;;;;5021268;28;20049;-65
2024/02/20 03:19:01;;;;;;;9.02;6.93;;;;;;;;;;5015966;28;20037;-64
2024/02/20 03:21:27;;;;;;;8.95;6.63;;;;;;;;;;5008038;28;20534;-64
2024/02/20 03:23:52;;;;;;;8.95;6.75;;;;;;;;;;5024363;28;20446;-64
2024/02/20 03:26:18;;;;;;;9.10;6.80;;;;;;;;;;5024018;28;20069;-64
2024/02/20 03:28:45;;;;;;;9.38;6.57;;;;;;;;;;5023835;28;20041;-64
2024/02/20 03:31:10;;;;;;;8.35;6.50;;;;;;;;;;5024337;28;20534;-66
2024/02/20 03:33:36;;;;;;;8.70;6.30;;;;;;;;;;5023943;28;20025;-67
2024/02/20 03:36:02;;;;;;;7.70;6.13;;;;;;;;;;5023282;28;20041;-64
2024/02/20 03:38:27;;;;;;;8.50;6.55;;;;;;;;;;5024009;28;20076;-64
2024/02/20 03:40:53;;;;;;;9.50;6.97;;;;;;;;;;5023838;28;20033;-63
2024/02/20 03:43:18;;;;;;;9.00;6.90;;;;;;;;;;5026388;28;20029;-62
2024/02/20 03:45:43;;;;;;;8.00;6.47;;;;;;;;;;5023794;28;20502;-63
2024/02/20 03:48:09;;;;;;;10.18;6.72;;;;;;;;;;5036959;28;20566;-63
2024/02/20 03:50:34;;;;;;;8.23;6.30;;;;;;;;;;5024704;28;20111;-63
2024/02/20 03:53:02;;;;;;;8.85;6.63;;;;;;;;;;5024686;28;20117;-63
2024/02/20 03:55:28;;;;;;;8.98;6.47;;;;;;;;;;5007297;28;20041;-64
2024/02/20 03:57:53;;;;;;;8.85;6.88;;;;;;;;;;5028167;28;20037;-63
2024/02/20 04:00:23;;;;;;;8.25;6.32;;;;;;;;;;5031408;28;20037;-62
2024/02/20 04:02:49;;;;;;;8.68;6.22;;;;;;;;;;5030005;28;20034;-65
2024/02/20 04:05:14;;;;;;;8.65;6.55;;;;;;;;;;5006720;28;20435;-63
2024/02/20 04:07:40;;;;;;;7.38;6.18;;;;;;;;;;5004789;28;20389;-64
2024/02/20 04:10:12;;;;;;;8.75;6.53;;;;;;;;;;5003204;28;20487;-67
2024/02/20 04:12:37;;;;;;;9.60;6.72;;;;;;;;;;5022295;28;20049;-66
2024/02/20 04:15:04;;;;;;;8.88;6.85;;;;;;;;;;5021792;28;20037;-64
2024/02/20 04:17:29;;;;;;;10.25;6.45;;;;;;;;;;5015071;28;20121;-64
2024/02/20 04:19:54;;;;;;;9.25;6.60;;;;;;;;;;5008833;28;20045;-64
2024/02/20 04:22:20;;;;;;;10.93;6.75;;;;;;;;;;5009374;28;20148;-63
2024/02/20 04:24:45;;;;;;;8.15;6.18;;;;;;;;;;5008397;28;20149;-65
2024/02/20 04:27:10;;;;;;;9.63;6.55;;;;;;;;;;5011640;28;20061;-64
2024/02/20 04:29:36;;;;;;;9.23;6.43;;;;;;;;;;5014393;28;20202;-63
2024/02/20 04:32:01;;;;;;;8.90;6.22;;;;;;;;;;5014162;28;20056;-63
2024/02/20 04:34:26;;;;;;;8.18;6.07;;;;;;;;;;5014531;28;20512;-65
2024/02/20 04:36:52;;;;;;;8.20;6.43;;;;;;;;;;5013212;28;20046;-62
2024/02/20 04:39:17;;;;;;;10.02;6.22;;;;;;;;;;5014609;28;20392;-63
2024/02/20 04:41:42;;;;;;;9.27;6.45;;;;;;;;;;5017570;28;20038;-66
2024/02/20 04:44:08;;;;;;;9.20;6.50;;;;;;;;;;5018563;28;20033;-66
2024/02/20 04:46:36;;;;;;;8.15;5.95;;;;;;;;;;5030227;28;20044;-64
2024/02/20 04:49:02;;;;;;;8.88;6.60;;;;;;;;;;5013201;28;20124;-64
2024/02/20 04:51:27;;;;;;;8.68;6.20;;;;;;;;;;5015618;28;20136;-64
2024/02/20 04:53:53;;;;;;;8.48;6.32;;;;;;;;;;5016752;28;20026;-69
2024/02/20 04:56:18;;;;;;;9.32;6.50;;;;;;;;;;5013798;28;20055;-64
2024/02/20 04:58:43;;;;;;;7.57;5.78;;;;;;;;;;5013861;28;20580;-66
2024/02/20 05:01:08;;;;;;;9.45;5.75;;;;;;;;;;5014507;28;20303;-64
2024/02/20 05:03:34;;;;;;;7.40;5.75;;;;;;;;;;5019508;28;20033;-65
2024/02/20 05:05:59;;;;;;;8.38;6.18;;;;;;;;;;5013737;28;20049;-65
2024/02/20 05:08:24;;;;;;;7.90;5.68;;;;;;;;;;5013844;28;20863;-62
2024/02/20 05:10:50;;;;;;;8.27;6.05;;;;;;;;;;5013369;28;20107;-63
2024/02/20 05:13:15;;;;;;;7.97;5.70;;;;;;;;;;5013167;28;20661;-64
2024/02/20 05:15:40;;;;;;;9.68;5.80;;;;;;;;;;5011197;28;20029;-62
2024/02/20 05:18:06;;;;;;;8.45;6.15;;;;;;;;;;5012401;28;20092;-61
2024/02/20 05:20:31;;;;;;;7.47;5.60;;;;;;;;;;5015378;28;20029;-61
2024/02/20 05:22:56;;;;;;;8.30;6.22;;;;;;;;;;5012286;28;20033;-63
2024/02/20 05:25:22;;;;;;;8.32;5.75;;;;;;;;;;5014436;28;20100;-64
2024/02/20 05:27:47;;;;;;;7.70;5.97;;;;;;;;;;5012969;28;20087;-63
2024/02/20 05:30:13;;;;;;;7.72;5.45;;;;;;;;;;5013120;28;20033;-62
2024/02/20 05:32:38;;;;;;;7.85;5.32;;;;;;;;;;5012660;28;20033;-61
2024/02/20 05:35:05;;;;;;;7.68;6.03;;;;;;;;;;5013656;28;21664;-61
2024/02/20 05:37:30;;;;;;;8.30;5.65;;;;;;;;;;5013591;28;20033;-61
2024/02/20 05:39:56;;;;;;;8.75;6.10;;;;;;;;;;5012568;28;20045;-61
2024/02/20 05:42:21;;;;;;;8.45;6.07;;;;;;;;;;5000035;28;20400;-62
2024/02/20 05:44:46;;;;;;;7.72;5.80;;;;;;;;;;5010952;28;20590;-62
2024/02/20 05:47:12;;;;;;;8.48;6.13;;;;;;;;;;5011652;28;20736;-61
2024/02/20 05:49:37;;;;;;;7.70;5.85;;;;;;;;;;5012308;28;20026;-64
2024/02/20 05:52:02;;;;;;;7.50;5.63;;;;;;;;;;4993598;28;20045;-61
2024/02/20 05:54:28;;;;;;;7.97;5.90;;;;;;;;;;5012638;28;20489;-61
2024/02/20 05:56:53;;;;;;;8.95;5.75;;;;;;;;;;4991204;28;20034;-61
2024/02/20 05:59:18;;;;;;;8.82;6.07;;;;;;;;;;5012714;28;20061;-61
2024/02/20 06:01:44;;;;;;;8.23;6.22;;;;;;;;;;5014446;28;20045;-62
2024/02/20 06:04:09;;;;;;;8.40;5.95;;;;;;;;;;5000324;28;20053;-61
2024/02/20 06:06:34;;;;;;;9.10;6.65;;;;;;;;;;5012206;28;20049;-63
2024/02/20 06:09:00;;;;;;;8.25;5.72;;;;;;;;;;5014116;28;20325;-61
2024/02/20 06:11:26;;;;;;;8.43;5.43;;;;;;;;;;5012909;28;20037;-62
2024/02/20 06:13:52;;;;;;;8.40;5.53;;;;;;;;;;5014707;28;20124;-62
2024/02/20 06:16:17;;;;;;;8.00;5.57;;;;;;;;;;5012236;28;20094;-63
2024/02/20 06:18:43;;;;;;;8.52;6.03;;;;;;;;;;5011790;28;20231;-62
2024/02/20 06:21:08;;;;;;;7.63;5.78;;;;;;;;;;5012327;28;20150;-62
2024/02/20 06:23:37;;;;;;;7.90;5.78;;;;;;;;;;5011470;28;20077;-63
2024/02/20 06:26:03;;;;;;;8.88;5.95;;;;;;;;;;5013098;28;20053;-64
2024/02/20 06:28:28;;;;;;;8.80;5.78;;;;;;;;;;5012775;28;20190;-63
2024/02/20 06:30:55;;;;;;;9.45;6.07;;;;;;;;;;5013267;28;20474;-63
2024/02/20 06:33:21;;;;;;;6.93;5.40;;;;;;;;;;5013048;28;20041;-63
2024/02/20 06:35:46;;;;;;;7.28;5.80;;;;;;;;;;5012558;28;20091;-63
2024/02/20 06:38:11;;;;;;;8.38;6.10;;;;;;;;;;5010310;28;20034;-63
2024/02/20 06:40:37;;;;;;;7.40;5.60;;;;;;;;;;5012356;28;20044;-62
2024/02/20 06:43:02;;;;;;;8.65;5.90;;;;;;;;;;5013079;28;20029;-63
2024/02/20 06:45:27;;;;;;;8.93;6.05;;;;;;;;;;5013291;28;20049;-65
2024/02/20 06:47:53;;;;;;;8.32;5.60;;;;;;;;;;5013627;28;20041;-66
2024/02/20 06:50:18;;;;;;;9.82;5.75;;;;;;;;;;5012463;28;20476;-65
2024/02/20 06:52:44;;;;;;;10.90;5.90;;;;;;;;;;5012417;28;20149;-63
2024/02/20 06:55:09;;;;;;;8.40;5.97;;;;;;;;;;5012807;28;20127;-66
2024/02/20 06:57:35;;;;;;;8.90;5.88;;;;;;;;;;5011732;28;20770;-65
2024/02/20 07:00:03;;;;;;;8.82;5.75;;;;;;;;;;5013685;28;20040;-65
2024/02/20 07:02:29;;;;;;;8.98;6.07;;;;;;;;;;5016079;28;20445;-66
2024/02/20 07:04:54;;;;;;;7.60;5.50;;;;;;;;;;4994562;28;20049;-66
2024/02/20 07:07:20;;;;;;;7.75;5.50;;;;;;;;;;5014586;28;20047;-66
2024/02/20 07:09:45;;;;;;;8.48;5.53;;;;;;;;;;4994356;28;20052;-67
2024/02/20 07:12:11;;;;;;;7.75;5.60;;;;;;;;;;5019888;28;20136;-66
2024/02/20 07:14:36;;;;;;;8.13;5.45;;;;;;;;;;5016856;28;20418;-67
2024/02/20 07:17:02;;;;;;;8.20;5.85;;;;;;;;;;5017496;28;20045;-67
2024/02/20 07:19:27;;;;;;;8.15;5.80;;;;;;;;;;5019438;28;20069;-67
2024/02/20 07:21:52;;;;;;;8.27;6.10;;;;;;;;;;5018647;28;20048;-67
2024/02/20 07:24:18;;;;;;;7.90;5.65;;;;;;;;;;5015477;28;20033;-68
2024/02/20 07:26:45;;;;;;;8.35;5.70;;;;;;;;;;5015367;28;20954;-67
2024/02/20 07:29:10;;;;;;;7.10;5.10;;;;;;;;;;5015482;28;20060;-67
2024/02/20 07:31:36;;;;;;;7.47;5.07;;;;;;;;;;4997196;28;20132;-65
2024/02/20 07:34:01;;;;;;;9.50;6.03;;;;;;;;;;5015120;28;20067;-66
2024/02/20 07:36:26;;;;;;;6.63;5.18;;;;;;;;;;5016643;28;20104;-67
2024/02/20 07:38:52;;;;;;;7.88;5.45;;;;;;;;;;5015171;28;20623;-68
2024/02/20 07:41:17;;;;;;;7.50;5.60;;;;;;;;;;5016697;28;20538;-67
2024/02/20 07:43:43;;;;;;;7.78;5.38;;;;;;;;;;5016320;28;20065;-68
2024/02/20 07:46:09;;;;;;;8.75;5.75;;;;;;;;;;4996076;28;20184;-67
2024/02/20 07:48:34;;;;;;;7.15;5.32;;;;;;;;;;5015801;28;20033;-67
2024/02/20 07:51:00;;;;;;;8.10;5.47;;;;;;;;;;5018313;28;20499;-66
2024/02/20 07:53:25;;;;;;;7.85;5.50;;;;;;;;;;5018178;28;20052;-67
2024/02/20 07:55:50;;;;;;;7.53;5.30;;;;;;;;;;5016936;28;20120;-67
2024/02/20 07:58:16;;;;;;;8.57;5.40;;;;;;;;;;5016621;28;20179;-67
2024/02/20 08:00:41;;;;;;;7.95;5.72;;;;;;;;;;5015877;28;20530;-67
2024/02/20 08:03:06;;;;;;;9.32;5.07;;;;;;;;;;5032082;28;20041;-67
2024/02/20 08:05:32;;;;;;;7.60;5.18;;;;;;;;;;5015290;28;20042;-67
2024/02/20 08:07:57;;;;;;;7.13;5.47;;;;;;;;;;5015936;28;20037;-68
2024/02/20 08:10:22;;;;;;;8.15;5.65;;;;;;;;;;4979025;28;20029;-67
2024/02/20 08:12:48;;;;;;;8.30;5.50;;;;;;;;;;5015002;28;20064;-67
2024/02/20 08:15:13;;;;;;;7.88;5.55;;;;;;;;;;4992562;28;20862;-67
2024/02/20 08:17:40;;;;;;;8.55;5.50;;;;;;;;;;5016404;28;20056;-67
2024/02/20 08:20:05;;;;;;;8.25;5.53;;;;;;;;;;5029992;28;20033;-67
2024/02/20 08:22:31;;;;;;;7.65;5.55;;;;;;;;;;5016718;28;20052;-67
2024/02/20 08:24:56;;;;;;;7.18;4.90;;;;;;;;;;5015187;28;20045;-68
2024/02/20 08:27:22;;;;;;;7.97;5.40;;;;;;;;;;5016878;28;20222;-67
2024/02/20 08:29:48;;;;;;;7.35;5.20;;;;;;;;;;5016942;28;20469;-66
2024/02/20 08:32:13;;;;;;;7.20;5.18;;;;;;;;;;5016719;28;20037;-67
2024/02/20 08:34:38;;;;;;;7.03;5.07;;;;;;;;;;5014080;28;20038;-67
2024/02/20 08:37:04;;;;;;;8.15;5.65;;;;;;;;;;5015740;28;20755;-67
2024/02/20 08:39:29;;;;;;;8.60;5.57;;;;;;;;;;5015130;28;20922;-67
2024/02/20 08:41:54;;;;;;;7.28;5.30;;;;;;;;;;5015864;28;20542;-68
2024/02/20 08:44:20;;;;;;;7.90;5.28;;;;;;;;;;5016548;28;20095;-66
2024/02/20 08:46:45;;;;;;;6.93;5.15;;;;;;;;;;5014433;28;20115;-66
2024/02/20 08:49:11;;;;;;;7.53;5.40;;;;;;;;;;4993376;28;20476;-68
2024/02/20 08:51:36;;;;;;;7.25;4.97;;;;;;;;;;5014517;28;20783;-67
2024/02/20 08:54:01;;;;;;;6.93;5.30;;;;;;;;;;5017128;28;20128;-68
2024/02/20 08:56:27;;;;;;;7.57;5.25;;;;;;;;;;5016160;28;20037;-68
2024/02/20 08:58:52;;;;;;;7.40;5.47;;;;;;;;;;5016622;28;20511;-67
2024/02/20 09:01:17;;;;;;;8.70;5.40;;;;;;;;;;5022672;28;20403;-67
2024/02/20 09:03:43;;;;;;;7.30;5.35;;;;;;;;;;5018287;28;20035;-68
2024/02/20 09:06:08;;;;;;;8.13;5.22;;;;;;;;;;5034600;28;20118;-68
2024/02/20 09:08:33;;;;;;;7.15;4.78;;;;;;;;;;5016687;28;20044;-68
2024/02/20 09:11:03;;;;;;;7.28;5.22;;;;;;;;;;5025027;28;20052;-68
2024/02/20 09:13:28;;;;;;;7.55;5.35;;;;;;;;;;5036358;28;20075;-68
2024/02/20 09:15:54;;;;;;;7.30;5.13;;;;;;;;;;5027026;28;20845;-68
2024/02/20 09:18:19;;;;;;;6.88;5.30;;;;;;;;;;5019633;28;20471;-68
2024/02/20 09:20:44;;;;;;;7.55;5.63;;;;;;;;;;5019212;28;20601;-68
2024/02/20 09:23:10;;;;;;;7.20;5.05;;;;;;;;;;5021472;28;20041;-68
2024/02/20 09:25:35;;;;;;;6.60;5.18;;;;;;;;;;5021984;28;20049;-68
2024/02/20 09:28:00;;;;;;;6.68;5.18;;;;;;;;;;5021287;28;20125;-67
2024/02/20 09:30:26;;;;;;;7.20;5.30;;;;;;;;;;5021124;28;20040;-68
2024/02/20 09:32:51;;;;;;;7.15;5.22;;;;;;;;;;5003465;28;20029;-68
2024/02/20 09:35:16;;;;;;;7.13;5.07;;;;;;;;;;5004395;28;20033;-68
2024/02/20 09:37:42;;;;;;;7.00;5.10;;;;;;;;;;5020376;28;20045;-68
2024/02/20 09:40:08;;;;;;;7.35;5.30;;;;;;;;;;5015211;28;20048;-68
2024/02/20 09:42:39;;;;;;;7.10;5.57;;;;;;;;;;5003256;28;20041;-68
2024/02/20 09:45:05;;;;;;;7.72;5.15;;;;;;;;;;5015690;28;20044;-68
2024/02/20 09:47:30;;;;;;;7.07;4.95;;;;;;;;;;5021212;28;20049;-68
2024/02/20 09:49:55;;;;;;;6.70;4.75;;;;;;;;;;5003629;28;20037;-67
2024/02/20 09:52:21;;;;;;;6.88;5.15;;;;;;;;;;5003021;28;20041;-68
2024/02/20 09:54:46;;;;;;;7.00;5.03;;;;;;;;;;5021492;28;20511;-67
2024/02/20 09:57:13;;;;;;;6.40;5.18;;;;;;;;;;5021129;28;20192;-67
2024/02/20 09:59:38;;;;;;;6.70;5.25;;;;;;;;;;5002819;28;20034;-67
2024/02/20 10:02:03;;;;;;;6.47;4.93;;;;;;;;;;5018640;28;20047;-68
2024/02/20 10:04:33;;;;;;;6.13;4.88;;;;;;;;;;5022294;28;20061;-68
2024/02/20 10:07:04;;;;;;;7.35;4.90;;;;;;;;;;5022102;28;20439;-68
2024/02/20 10:09:30;;;;;;;6.93;5.07;;;;;;;;;;5001335;28;20503;-68
2024/02/20 10:11:56;;;;;;;6.72;5.03;;;;;;;;;;5003629;28;20029;-68
2024/02/20 10:14:30;;;;;;;7.88;5.40;;;;;;;;;;5022401;28;20048;-68
2024/02/20 10:17:00;;;;;;;8.20;5.90;;;;;;;;;;5002683;28;20029;-68
2024/02/20 10:19:25;;;;;;;7.28;5.15;;;;;;;;;;5023599;28;20127;-67
2024/02/20 10:21:50;;;;;;;6.78;5.38;;;;;;;;;;5022083;28;20030;-68
2024/02/20 10:24:16;;;;;;;7.45;5.15;;;;;;;;;;5023711;28;20099;-68
2024/02/20 10:26:42;;;;;;;6.68;5.10;;;;;;;;;;5011109;28;20056;-68
2024/02/20 10:29:07;;;;;;;6.88;5.05;;;;;;;;;;4987510;28;20041;-67
2024/02/20 10:31:33;;;;;;;7.45;5.40;;;;;;;;;;4989831;28;20229;-67
2024/02/20 10:33:58;;;;;;;6.78;4.93;;;;;;;;;;5010221;28;20037;-66
2024/02/20 10:36:25;;;;;;;7.00;4.70;;;;;;;;;;4994773;28;20030;-67
2024/02/20 10:38:51;;;;;;;7.03;5.18;;;;;;;;;;5014153;28;20064;-67
2024/02/20 10:41:18;;;;;;;7.95;5.28;;;;;;;;;;4991959;28;20034;-66
2024/02/20 10:43:45;;;;;;;7.30;5.45;;;;;;;;;;5015569;28;20450;-64
2024/02/20 10:46:12;;;;;;;6.55;4.95;;;;;;;;;;4993307;28;20038;-65
2024/02/20 10:48:37;;;;;;;6.72;5.10;;;;;;;;;;5030700;28;20049;-67
2024/02/20 10:51:03;;;;;;;7.28;5.22;;;;;;;;;;5016360;28;20124;-66
2024/02/20 10:53:29;;;;;;;6.78;4.88;;;;;;;;;;5000108;28;20167;-66
2024/02/20 10:55:54;;;;;;;6.60;4.70;;;;;;;;;;5016892;28;20725;-65
2024/02/20 10:58:20;;;;;;;7.85;5.45;;;;;;;;;;5016711;28;20065;-68
2024/02/20 11:00:46;;;;;;;7.18;4.80;;;;;;;;;;5028999;28;20049;-67
2024/02/20 11:03:12;;;;;;;6.68;4.97;;;;;;;;;;4980426;28;20123;-67
2024/02/20 11:05:37;;;;;;;8.00;5.38;;;;;;;;;;4993637;28;20077;-66
2024/02/20 11:08:06;;;;;;;7.00;4.75;;;;;;;;;;5016542;28;20029;-66
2024/02/20 11:10:34;;;;;;;7.55;5.07;;;;;;;;;;5029463;28;20054;-68
2024/02/20 11:13:09;;;;;;;6.53;4.72;;;;;;;;;;4998161;28;20091;-66
2024/02/20 11:15:34;;;;;;;6.07;4.47;;;;;;;;;;5031635;28;20957;-68
2024/02/20 11:18:00;;;;;;;6.70;4.80;;;;;;;;;;5015611;28;20064;-67
2024/02/20 11:20:25;;;;;;;7.38;5.30;;;;;;;;;;5015764;28;20042;-67
2024/02/20 11:22:51;;;;;;;7.40;5.68;;;;;;;;;;5015176;28;20061;-67
2024/02/20 11:25:16;;;;;;;6.93;4.97;;;;;;;;;;5016100;28;20214;-67
2024/02/20 11:27:42;;;;;;;6.60;4.95;;;;;;;;;;5017156;28;20034;-67
2024/02/20 11:30:11;;;;;;;6.53;4.97;;;;;;;;;;5015118;28;20033;-68
2024/02/20 11:32:37;;;;;;;6.47;4.80;;;;;;;;;;5014936;28;20038;-69
2024/02/20 11:35:02;;;;;;;6.35;4.68;;;;;;;;;;5032160;28;20143;-68
2024/02/20 11:37:27;;;;;;;5.80;4.90;;;;;;;;;;5015515;28;20114;-67
2024/02/20 11:39:53;;;;;;;6.40;4.78;;;;;;;;;;5014201;28;20034;-68
2024/02/20 11:42:19;;;;;;;6.03;4.72;;;;;;;;;;4997626;28;20046;-68
2024/02/20 11:44:44;;;;;;;6.05;4.80;;;;;;;;;;5015344;28;20409;-67
2024/02/20 11:47:14;;;;;;;6.15;4.90;;;;;;;;;;5016391;28;20918;-68
2024/02/20 11:49:39;;;;;;;6.40;4.85;;;;;;;;;;5015153;28;20052;-68
2024/02/20 11:52:06;;;;;;;6.28;4.85;;;;;;;;;;4992463;28;20515;-68
2024/02/20 11:54:31;;;;;;;6.35;4.90;;;;;;;;;;5029560;28;20042;-68
2024/02/20 11:56:56;;;;;;;5.45;4.30;;;;;;;;;;5015008;28;20033;-67
2024/02/20 11:59:22;;;;;;;6.97;5.03;;;;;;;;;;5011849;28;20477;-67
2024/02/20 12:01:47;;;;;;;6.88;4.78;;;;;;;;;;4991633;28;20463;-67
2024/02/20 12:04:13;;;;;;;6.35;4.90;;;;;;;;;;4998278;28;20040;-67
2024/02/20 12:06:39;;;;;;;5.82;4.13;;;;;;;;;;5016276;28;20508;-67
2024/02/20 12:09:04;;;;;;;6.10;4.47;;;;;;;;;;5016048;28;20547;-67
2024/02/20 12:11:30;;;;;;;6.45;4.53;;;;;;;;;;4999414;28;20038;-67
2024/02/20 12:14:01;;;;;;;5.55;4.05;;;;;;;;;;5016060;28;20029;-67
2024/02/20 12:16:29;;;;;;;6.93;4.65;;;;;;;;;;5016387;28;20136;-68
2024/02/20 12:18:56;;;;;;;6.80;4.75;;;;;;;;;;5016201;28;20042;-67
2024/02/20 12:21:26;;;;;;;6.15;4.18;;;;;;;;;;4989986;28;20545;-68
2024/02/20 12:23:52;;;;;;;5.93;4.30;;;;;;;;;;5015663;28;20033;-68
2024/02/20 12:26:18;;;;;;;5.53;4.30;;;;;;;;;;5017363;28;20046;-67
2024/02/20 12:28:43;;;;;;;5.43;3.80;;;;;;;;;;4992702;28;20030;-68
2024/02/20 12:31:08;;;;;;;5.75;4.40;;;;;;;;;;5013663;28;20044;-67
2024/02/20 12:33:34;;;;;;;5.65;4.38;;;;;;;;;;5015234;28;20041;-67
2024/02/20 12:35:59;;;;;;;5.50;4.40;;;;;;;;;;5015859;28;20033;-68
2024/02/20 12:38:29;;;;;;;5.53;4.20;;;;;;;;;;5017884;28;20080;-68
2024/02/20 12:40:54;;;;;;;5.80;4.10;;;;;;;;;;5012606;28;20118;-68
2024/02/20 12:43:19;;;;;;;5.07;4.13;;;;;;;;;;5015756;28;20924;-68
2024/02/20 12:45:45;;;;;;;5.20;4.03;;;;;;;;;;4995844;28;20112;-68
2024/02/20 12:48:10;;;;;;;5.68;4.22;;;;;;;;;;5014739;28;20045;-68
2024/02/20 12:50:36;;;;;;;6.20;4.25;;;;;;;;;;5015327;28;20080;-67
2024/02/20 12:53:02;;;;;;;5.60;3.95;;;;;;;;;;5015951;28;20148;-67
2024/02/20 12:55:34;;;;;;;5.40;4.00;;;;;;;;;;5015946;28;20029;-67
2024/02/20 12:58:03;;;;;;;5.30;3.80;;;;;;;;;;4993555;28;20114;-67
2024/02/20 13:00:29;;;;;;;6.30;4.10;;;;;;;;;;4991632;28;20033;-67
2024/02/20 13:02:57;;;;;;;5.55;4.53;;;;;;;;;;5012995;28;20439;-67
2024/02/20 13:05:23;;;;;;;4.68;3.72;;;;;;;;;;5014686;28;20053;-67
2024/02/20 13:07:49;;;;;;;5.05;3.92;;;;;;;;;;5014437;28;20049;-67
2024/02/20 13:10:15;;;;;;;5.72;4.22;;;;;;;;;;5015070;28;20139;-67
2024/02/20 13:12:41;;;;;;;4.93;3.85;;;;;;;;;;4991724;28;20037;-67
2024/02/20 13:15:07;;;;;;;5.47;4.18;;;;;;;;;;5031590;28;20031;-67
2024/02/20 13:17:32;;;;;;;4.97;3.80;;;;;;;;;;5022228;28;20073;-67
2024/02/20 13:19:57;;;;;;;5.47;3.92;;;;;;;;;;5019707;28;20724;-67
2024/02/20 13:22:23;;;;;;;5.28;3.72;;;;;;;;;;5020456;28;20222;-68
2024/02/20 13:24:48;;;;;;;4.72;3.63;;;;;;;;;;5021021;28;20041;-68
2024/02/20 13:27:14;;;;;;;5.30;3.95;;;;;;;;;;5004874;28;20056;-68
2024/02/20 13:29:39;;;;;;;5.57;3.92;;;;;;;;;;5022504;28;20043;-67
2024/02/20 13:32:05;;;;;;;5.57;3.58;;;;;;;;;;5024096;28;20033;-67
2024/02/20 13:34:30;;;;;;;4.90;3.80;;;;;;;;;;5023734;28;20120;-67
2024/02/20 13:36:59;;;;;;;4.60;3.88;;;;;;;;;;5003524;28;20041;-67
2024/02/20 13:39:25;;;;;;;5.15;3.88;;;;;;;;;;5019756;28;20037;-67
2024/02/20 13:41:50;;;;;;;4.45;3.65;;;;;;;;;;5018895;28;20037;-67
2024/02/20 13:44:15;;;;;;;5.00;3.65;;;;;;;;;;5017195;28;20041;-66
2024/02/20 13:46:41;;;;;;;5.10;3.72;;;;;;;;;;5015216;28;20041;-67
2024/02/20 13:49:06;;;;;;;4.88;3.63;;;;;;;;;;5014630;28;20815;-67
2024/02/20 13:51:32;;;;;;;4.43;3.33;;;;;;;;;;4992919;28;20122;-68
2024/02/20 13:53:58;;;;;;;5.40;3.50;;;;;;;;;;5015479;28;20041;-67
2024/02/20 13:56:23;;;;;;;5.05;3.83;;;;;;;;;;4991794;28;20048;-67
2024/02/20 13:58:49;;;;;;;4.43;3.60;;;;;;;;;;5014859;28;20118;-67
2024/02/20 14:01:14;;;;;;;4.40;3.60;;;;;;;;;;5001277;28;20072;-68
2024/02/20 14:03:40;;;;;;;5.28;3.92;;;;;;;;;;5021585;28;20069;-67
2024/02/20 14:06:05;;;;;;;4.75;3.60;;;;;;;;;;5021874;28;20053;-67
2024/02/20 14:08:30;;;;;;;4.57;3.75;;;;;;;;;;5026725;28;20048;-67
2024/02/20 14:10:56;;;;;;;4.85;3.53;;;;;;;;;;5025245;28;20053;-68
2024/02/20 14:13:22;;;;;;;4.70;3.58;;;;;;;;;;5025658;28;20044;-66
2024/02/20 14:15:49;;;;;;;4.43;3.38;;;;;;;;;;5025877;28;20041;-68
2024/02/20 14:18:14;;;;;;;5.00;3.25;;;;;;;;;;5026015;28;20605;-71
2024/02/20 14:20:40;;;;;;;4.55;3.63;;;;;;;;;;5007059;28;20038;-71
2024/02/20 14:23:05;;;;;;;4.47;3.65;;;;;;;;;;5006751;28;20044;-71
2024/02/20 14:25:32;;;;;;;5.50;3.70;;;;;;;;;;5025417;28;20092;-70
2024/02/20 14:27:57;;;;;;;4.80;3.45;;;;;;;;;;5007835;28;20045;-70
2024/02/20 14:30:23;;;;;;;4.22;3.20;;;;;;;;;;5008210;28;20029;-71
2024/02/20 14:32:48;;;;;;;5.07;3.40;;;;;;;;;;5011466;28;20030;-70
2024/02/20 14:35:14;;;;;;;5.30;4.00;;;;;;;;;;5007429;28;20112;-71